sensor_id;sensor_type;location;lat;lon;timestamp;pressure;altitude;pressure_sealevel;temperature;humidity
31299;BME280;17927;52.350;13.402;2023-08-31T00:01:28;100166.19;;;20.02;54.37
31299;BME280;17927;52.350;13.402;2023-08-31T00:03:53;100172.53;;;20.03;54.64
31299;BME280;17927;52.350;13.402;2023-08-31T00:06:19;100169.38;;;19.99;54.86
31299;BME280;17927;52.350;13.402;2023-08-31T00:08:46;100163.28;;;19.97;54.44
31299;BME280;17927;52.350;13.402;2023-08-31T00:11:12;100166.84;;;19.98;54.96
31299;BME280;17927;52.350;13.402;2023-08-31T00:13:37;100168.75;;;19.97;54.92
31299;BME280;17927;52.350;13.402;2023-08-31T00:16:03;100156.94;;;19.97;54.53
31299;BME280;17927;52.350;13.402;2023-08-31T00:18:29;100167.09;;;19.96;54.46
31299;BME280;17927;52.350;13.402;2023-08-31T00:20:55;100158.00;;;19.96;54.74
31299;BME280;17927;52.350;13.402;2023-08-31T00:23:20;100153.56;;;19.95;54.82
31299;BME280;17927;52.350;13.402;2023-08-31T00:25:46;100153.38;;;19.96;54.61
31299;BME280;17927;52.350;13.402;2023-08-31T00:28:13;100153.38;;;19.96;54.68
31299;BME280;17927;52.350;13.402;2023-08-31T00:30:40;100149.56;;;19.97;54.71
31299;BME280;17927;52.350;13.402;2023-08-31T00:33:06;100158.84;;;19.96;55.09
31299;BME280;17927;52.350;13.402;2023-08-31T00:35:33;100152.75;;;19.94;54.72
31299;BME280;17927;52.350;13.402;2023-08-31T00:37:58;100149.38;;;19.92;55.15
31299;BME280;17927;52.350;13.402;2023-08-31T00:40:27;100154.88;;;19.92;55.34
31299;BME280;17927;52.350;13.402;2023-08-31T00:42:53;100160.56;;;19.90;55.20
31299;BME280;17927;52.350;13.402;2023-08-31T00:45:18;100161.63;;;19.89;55.29
31299;BME280;17927;52.350;13.402;2023-08-31T00:47:48;100164.56;;;19.88;55.35
31299;BME280;17927;52.350;13.402;2023-08-31T00:50:14;100161.41;;;19.84;54.99
31299;BME280;17927;52.350;13.402;2023-08-31T00:52:41;100160.16;;;19.80;55.19
31299;BME280;17927;52.350;13.402;2023-08-31T00:55:07;100160.63;;;19.77;55.10
31299;BME280;17927;52.350;13.402;2023-08-31T00:57:33;100160.19;;;19.73;55.24
31299;BME280;17927;52.350;13.402;2023-08-31T00:59:58;100165.28;;;19.70;55.23
31299;BME280;17927;52.350;13.402;2023-08-31T01:02:34;100159.41;;;19.66;55.75
31299;BME280;17927;52.350;13.402;2023-08-31T01:05:13;100169.72;;;19.64;55.62
31299;BME280;17927;52.350;13.402;2023-08-31T01:10:50;100168.50;;;19.53;56.11
31299;BME280;17927;52.350;13.402;2023-08-31T01:13:24;100172.72;;;19.49;55.88
31299;BME280;17927;52.350;13.402;2023-08-31T01:16:00;100172.31;;;19.45;56.53
31299;BME280;17927;52.350;13.402;2023-08-31T01:18:26;100172.75;;;19.42;56.21
31299;BME280;17927;52.350;13.402;2023-08-31T01:21:17;100182.25;;;19.40;56.81
31299;BME280;17927;52.350;13.402;2023-08-31T01:23:55;100176.16;;;19.31;57.10
31299;BME280;17927;52.350;13.402;2023-08-31T01:26:22;100177.84;;;19.32;57.04
31299;BME280;17927;52.350;13.402;2023-08-31T01:28:48;100179.53;;;19.33;57.33
31299;BME280;17927;52.350;13.402;2023-08-31T01:31:14;100187.94;;;19.31;57.25
31299;BME280;17927;52.350;13.402;2023-08-31T01:33:42;100177.22;;;19.30;57.50
31299;BME280;17927;52.350;13.402;2023-08-31T01:36:20;100182.47;;;19.31;57.45
31299;BME280;17927;52.350;13.402;2023-08-31T01:38:50;100178.06;;;19.30;57.58
31299;BME280;17927;52.350;13.402;2023-08-31T01:41:19;100186.75;;;19.14;57.83
31299;BME280;17927;52.350;13.402;2023-08-31T01:43:47;100190.28;;;19.21;58.02
31299;BME280;17927;52.350;13.402;2023-08-31T01:46:13;100206.06;;;19.26;58.05
31299;BME280;17927;52.350;13.402;2023-08-31T01:48:39;100201.47;;;19.26;57.83
31299;BME280;17927;52.350;13.402;2023-08-31T01:51:07;100202.09;;;19.28;58.13
31299;BME280;17927;52.350;13.402;2023-08-31T01:53:32;100200.19;;;19.29;57.89
31299;BME280;17927;52.350;13.402;2023-08-31T01:55:57;100214.91;;;19.28;58.17
31299;BME280;17927;52.350;13.402;2023-08-31T01:58:23;100209.44;;;19.28;58.36
31299;BME280;17927;52.350;13.402;2023-08-31T02:00:48;100214.91;;;19.28;58.13
31299;BME280;17927;52.350;13.402;2023-08-31T02:03:13;100218.06;;;19.25;58.30
31299;BME280;17927;52.350;13.402;2023-08-31T02:05:38;100219.13;;;19.24;58.23
31299;BME280;17927;52.350;13.402;2023-08-31T02:08:04;100220.22;;;19.23;58.39
31299;BME280;17927;52.350;13.402;2023-08-31T02:10:29;100217.66;;;19.21;58.80
31299;BME280;17927;52.350;13.402;2023-08-31T02:12:54;100220.63;;;19.20;58.76
31299;BME280;17927;52.350;13.402;2023-08-31T02:15:20;100221.69;;;19.19;58.56
31299;BME280;17927;52.350;13.402;2023-08-31T02:17:45;100230.94;;;19.17;58.66
31299;BME280;17927;52.350;13.402;2023-08-31T02:20:10;100235.56;;;19.17;58.92
31299;BME280;17927;52.350;13.402;2023-08-31T02:22:36;100232.63;;;19.19;58.78
31299;BME280;17927;52.350;13.402;2023-08-31T02:25:01;100232.81;;;19.17;58.83
31299;BME280;17927;52.350;13.402;2023-08-31T02:27:27;100233.88;;;19.16;59.08
31299;BME280;17927;52.350;13.402;2023-08-31T02:29:52;100241.28;;;19.15;58.86
31299;BME280;17927;52.350;13.402;2023-08-31T02:32:17;100238.75;;;19.14;59.03
31299;BME280;17927;52.350;13.402;2023-08-31T02:34:43;100232.41;;;19.13;59.02
31299;BME280;17927;52.350;13.402;2023-08-31T02:37:08;100253.28;;;19.14;59.39
31299;BME280;17927;52.350;13.402;2023-08-31T02:39:33;100253.69;;;19.11;58.93
31299;BME280;17927;52.350;13.402;2023-08-31T02:41:58;100251.38;;;19.08;59.26
31299;BME280;17927;52.350;13.402;2023-08-31T02:44:24;100244.25;;;19.07;58.91
31299;BME280;17927;52.350;13.402;2023-08-31T02:46:49;100239.19;;;19.04;59.31
31299;BME280;17927;52.350;13.402;2023-08-31T02:49:14;100238.97;;;19.06;59.26
31299;BME280;17927;52.350;13.402;2023-08-31T02:51:39;100244.44;;;19.06;59.48
31299;BME280;17927;52.350;13.402;2023-08-31T02:54:05;100249.91;;;19.06;59.44
31299;BME280;17927;52.350;13.402;2023-08-31T02:56:30;100241.06;;;19.04;59.28
31299;BME280;17927;52.350;13.402;2023-08-31T02:58:55;100250.13;;;19.04;59.11
31299;BME280;17927;52.350;13.402;2023-08-31T03:01:21;100257.47;;;19.04;59.38
31299;BME280;17927;52.350;13.402;2023-08-31T03:03:47;100260.44;;;19.02;59.30
31299;BME280;17927;52.350;13.402;2023-08-31T03:06:13;100257.06;;;19.00;59.14
31299;BME280;17927;52.350;13.402;2023-08-31T03:08:40;100252.00;;;18.97;59.41
31299;BME280;17927;52.350;13.402;2023-08-31T03:11:05;100259.59;;;18.95;59.36
31299;BME280;17927;52.350;13.402;2023-08-31T03:13:32;100266.06;;;18.94;59.41
31299;BME280;17927;52.350;13.402;2023-08-31T03:15:57;100267.34;;;18.91;59.31
31299;BME280;17927;52.350;13.402;2023-08-31T03:18:23;100268.63;;;18.89;59.52
31299;BME280;17927;52.350;13.402;2023-08-31T03:20:48;100268.81;;;18.87;59.39
31299;BME280;17927;52.350;13.402;2023-08-31T03:23:14;100265.44;;;18.85;59.27
31299;BME280;17927;52.350;13.402;2023-08-31T03:25:39;100272.59;;;18.86;59.28
31299;BME280;17927;52.350;13.402;2023-08-31T03:28:05;100266.72;;;18.82;59.41
31299;BME280;17927;52.350;13.402;2023-08-31T03:30:30;100267.75;;;18.81;59.19
31299;BME280;17927;52.350;13.402;2023-08-31T03:32:55;100269.84;;;18.79;59.25
31299;BME280;17927;52.350;13.402;2023-08-31T03:35:20;100265.44;;;18.78;59.40
31299;BME280;17927;52.350;13.402;2023-08-31T03:37:51;100268.63;;;18.75;59.43
31299;BME280;17927;52.350;13.402;2023-08-31T03:40:16;100272.19;;;18.76;59.32
31299;BME280;17927;52.350;13.402;2023-08-31T03:42:42;100269.84;;;18.72;58.92
31299;BME280;17927;52.350;13.402;2023-08-31T03:45:07;100271.75;;;18.72;59.01
31299;BME280;17927;52.350;13.402;2023-08-31T03:47:32;100270.06;;;18.71;59.01
31299;BME280;17927;52.350;13.402;2023-08-31T03:49:57;100270.06;;;18.71;58.98
31299;BME280;17927;52.350;13.402;2023-08-31T03:52:23;100269.44;;;18.69;59.15
31299;BME280;17927;52.350;13.402;2023-08-31T03:54:48;100272.19;;;18.69;58.81
31299;BME280;17927;52.350;13.402;2023-08-31T03:57:14;100277.66;;;18.69;59.03
31299;BME280;17927;52.350;13.402;2023-08-31T03:59:39;100276.81;;;18.68;58.93
31299;BME280;17927;52.350;13.402;2023-08-31T04:02:04;100274.28;;;18.67;59.00
31299;BME280;17927;52.350;13.402;2023-08-31T04:04:30;100271.75;;;18.65;59.16
31299;BME280;17927;52.350;13.402;2023-08-31T04:06:55;100292.78;;;18.65;58.97
31299;BME280;17927;52.350;13.402;2023-08-31T04:09:20;100291.31;;;18.62;59.26
31299;BME280;17927;52.350;13.402;2023-08-31T04:11:46;100291.53;;;18.61;59.10
31299;BME280;17927;52.350;13.402;2023-08-31T04:14:11;100294.47;;;18.59;59.48
31299;BME280;17927;52.350;13.402;2023-08-31T04:16:36;100299.94;;;18.59;59.28
31299;BME280;17927;52.350;13.402;2023-08-31T04:19:01;100296.38;;;18.59;59.49
31299;BME280;17927;52.350;13.402;2023-08-31T04:21:27;100299.50;;;18.55;59.52
31299;BME280;17927;52.350;13.402;2023-08-31T04:23:52;100304.13;;;18.55;59.56
31299;BME280;17927;52.350;13.402;2023-08-31T04:26:17;100300.78;;;18.53;59.69
31299;BME280;17927;52.350;13.402;2023-08-31T04:28:43;100303.69;;;18.51;60.01
31299;BME280;17927;52.350;13.402;2023-08-31T04:31:08;100307.28;;;18.52;59.98
31299;BME280;17927;52.350;13.402;2023-08-31T04:33:35;100312.31;;;18.55;59.94
31299;BME280;17927;52.350;13.402;2023-08-31T04:36:00;100314.88;;;18.56;59.61
31299;BME280;17927;52.350;13.402;2023-08-31T04:38:26;100314.25;;;18.61;59.84
31299;BME280;17927;52.350;13.402;2023-08-31T04:40:51;100313.84;;;18.64;59.97
31299;BME280;17927;52.350;13.402;2023-08-31T04:43:16;100310.88;;;18.66;59.86
31299;BME280;17927;52.350;13.402;2023-08-31T04:45:42;100315.13;;;18.68;59.58
31299;BME280;17927;52.350;13.402;2023-08-31T04:48:07;100318.47;;;18.70;59.61
31299;BME280;17927;52.350;13.402;2023-08-31T04:50:32;100314.91;;;18.70;59.62
31299;BME280;17927;52.350;13.402;2023-08-31T04:52:58;100317.63;;;18.70;59.54
31299;BME280;17927;52.350;13.402;2023-08-31T04:55:23;100316.16;;;18.67;59.55
31299;BME280;17927;52.350;13.402;2023-08-31T04:57:48;100320.78;;;18.67;59.99
31299;BME280;17927;52.350;13.402;2023-08-31T05:00:14;100321.63;;;18.67;59.82
31299;BME280;17927;52.350;13.402;2023-08-31T05:02:39;100323.50;;;18.67;59.96
31299;BME280;17927;52.350;13.402;2023-08-31T05:05:05;100324.38;;;18.67;60.12
31299;BME280;17927;52.350;13.402;2023-08-31T05:07:30;100329.84;;;18.67;59.80
31299;BME280;17927;52.350;13.402;2023-08-31T05:09:55;100328.78;;;18.68;60.04
31299;BME280;17927;52.350;13.402;2023-08-31T05:12:21;100327.72;;;18.69;60.34
31299;BME280;17927;52.350;13.402;2023-08-31T05:14:46;100329.41;;;18.70;60.43
31299;BME280;17927;52.350;13.402;2023-08-31T05:17:11;100331.31;;;18.70;60.12
31299;BME280;17927;52.350;13.402;2023-08-31T05:19:36;100335.09;;;18.69;60.21
31299;BME280;17927;52.350;13.402;2023-08-31T05:22:02;100334.44;;;18.67;60.55
31299;BME280;17927;52.350;13.402;2023-08-31T05:24:27;100351.91;;;18.66;60.26
31299;BME280;17927;52.350;13.402;2023-08-31T05:26:52;100346.00;;;18.62;60.76
31299;BME280;17927;52.350;13.402;2023-08-31T05:29:18;100356.75;;;18.64;60.67
31299;BME280;17927;52.350;13.402;2023-08-31T05:31:43;100350.44;;;18.63;60.74
31299;BME280;17927;52.350;13.402;2023-08-31T05:34:16;100354.00;;;18.64;60.61
31299;BME280;17927;52.350;13.402;2023-08-31T05:36:42;100354.00;;;18.64;60.92
31299;BME280;17927;52.350;13.402;2023-08-31T05:39:08;100362.84;;;18.66;60.79
31299;BME280;17927;52.350;13.402;2023-08-31T05:41:33;100369.38;;;18.65;60.60
31299;BME280;17927;52.350;13.402;2023-08-31T05:43:59;100369.38;;;18.65;60.63
31299;BME280;17927;52.350;13.402;2023-08-31T05:46:24;100367.50;;;18.65;60.58
31299;BME280;17927;52.350;13.402;2023-08-31T05:48:50;100370.00;;;18.67;60.88
31299;BME280;17927;52.350;13.402;2023-08-31T05:51:15;100381.81;;;18.67;60.94
31299;BME280;17927;52.350;13.402;2023-08-31T05:53:40;100379.06;;;18.67;60.94
31299;BME280;17927;52.350;13.402;2023-08-31T05:56:05;100382.63;;;18.68;60.79
31299;BME280;17927;52.350;13.402;2023-08-31T05:58:33;100377.81;;;18.70;61.08
31299;BME280;17927;52.350;13.402;2023-08-31T06:00:59;100381.19;;;18.72;61.02
31299;BME280;17927;52.350;13.402;2023-08-31T06:03:24;100382.66;;;18.75;60.90
31299;BME280;17927;52.350;13.402;2023-08-31T06:05:50;100379.72;;;18.76;60.83
31299;BME280;17927;52.350;13.402;2023-08-31T06:08:15;100386.69;;;18.79;60.79
31299;BME280;17927;52.350;13.402;2023-08-31T06:10:40;100382.03;;;18.79;61.21
31299;BME280;17927;52.350;13.402;2023-08-31T06:13:06;100397.22;;;18.82;60.89
31299;BME280;17927;52.350;13.402;2023-08-31T06:15:31;100394.25;;;18.83;60.95
31299;BME280;17927;52.350;13.402;2023-08-31T06:17:56;100395.72;;;18.86;60.84
31299;BME280;17927;52.350;13.402;2023-08-31T06:20:21;100398.28;;;18.87;61.16
31299;BME280;17927;52.350;13.402;2023-08-31T06:22:47;100401.66;;;18.90;60.91
31299;BME280;17927;52.350;13.402;2023-08-31T06:25:12;100408.59;;;18.92;61.03
31299;BME280;17927;52.350;13.402;2023-08-31T06:27:42;100404.44;;;18.96;61.12
31299;BME280;17927;52.350;13.402;2023-08-31T06:30:08;100401.91;;;19.01;61.11
31299;BME280;17927;52.350;13.402;2023-08-31T06:32:34;100409.50;;;19.06;61.17
31299;BME280;17927;52.350;13.402;2023-08-31T06:34:59;100406.97;;;19.11;61.25
31299;BME280;17927;52.350;13.402;2023-08-31T06:37:24;100410.78;;;19.17;61.09
31299;BME280;17927;52.350;13.402;2023-08-31T06:39:50;100412.03;;;19.21;60.90
31299;BME280;17927;52.350;13.402;2023-08-31T06:42:15;100420.91;;;19.23;60.83
31299;BME280;17927;52.350;13.402;2023-08-31T06:44:40;100414.16;;;19.26;60.79
31299;BME280;17927;52.350;13.402;2023-08-31T06:47:05;100421.53;;;19.25;60.62
31299;BME280;17927;52.350;13.402;2023-08-31T06:49:30;100419.00;;;19.24;60.84
31299;BME280;17927;52.350;13.402;2023-08-31T06:51:58;100413.75;;;19.22;60.59
31299;BME280;17927;52.350;13.402;2023-08-31T06:54:23;100421.13;;;19.22;60.42
31299;BME280;17927;52.350;13.402;2023-08-31T06:56:49;100428.06;;;19.17;60.61
31299;BME280;17927;52.350;13.402;2023-08-31T06:59:14;100424.25;;;19.12;60.41
31299;BME280;17927;52.350;13.402;2023-08-31T07:01:39;100433.72;;;19.09;60.65
31299;BME280;17927;52.350;13.402;2023-08-31T07:04:05;100431.19;;;19.08;60.62
31299;BME280;17927;52.350;13.402;2023-08-31T07:06:33;100436.03;;;19.06;60.79
31299;BME280;17927;52.350;13.402;2023-08-31T07:08:58;100434.56;;;19.03;60.96
31299;BME280;17927;52.350;13.402;2023-08-31T07:11:23;100433.91;;;19.01;61.13
31299;BME280;17927;52.350;13.402;2023-08-31T07:13:48;100433.28;;;18.99;60.92
31299;BME280;17927;52.350;13.402;2023-08-31T07:16:14;100432.22;;;19.00;61.01
31299;BME280;17927;52.350;13.402;2023-08-31T07:18:39;100437.69;;;19.00;61.12
31299;BME280;17927;52.350;13.402;2023-08-31T07:21:04;100433.50;;;19.04;61.44
31299;BME280;17927;52.350;13.402;2023-08-31T07:23:30;100447.84;;;19.06;61.12
31299;BME280;17927;52.350;13.402;2023-08-31T07:25:58;100450.13;;;19.09;61.50
31299;BME280;17927;52.350;13.402;2023-08-31T07:28:25;100450.78;;;19.11;61.18
31299;BME280;17927;52.350;13.402;2023-08-31T07:31:00;100453.75;;;19.16;61.28
31299;BME280;17927;52.350;13.402;2023-08-31T07:33:25;100457.75;;;19.21;61.50
31299;BME280;17927;52.350;13.402;2023-08-31T07:35:50;100464.50;;;19.25;61.66
31299;BME280;17927;52.350;13.402;2023-08-31T07:38:16;100469.56;;;19.28;61.31
31299;BME280;17927;52.350;13.402;2023-08-31T07:40:41;100467.03;;;19.33;61.69
31299;BME280;17927;52.350;13.402;2023-08-31T07:43:07;100476.53;;;19.37;61.20
31299;BME280;17927;52.350;13.402;2023-08-31T07:45:32;100471.66;;;19.39;60.96
31299;BME280;17927;52.350;13.402;2023-08-31T07:47:57;100469.56;;;19.41;61.07
31299;BME280;17927;52.350;13.402;2023-08-31T07:50:22;100483.06;;;19.43;61.13
31299;BME280;17927;52.350;13.402;2023-08-31T07:52:48;100484.75;;;19.44;60.56
31299;BME280;17927;52.350;13.402;2023-08-31T07:55:13;100490.44;;;19.42;60.49
31299;BME280;17927;52.350;13.402;2023-08-31T07:57:38;100485.19;;;19.41;60.64
31299;BME280;17927;52.350;13.402;2023-08-31T08:00:04;100484.75;;;19.37;60.42
31299;BME280;17927;52.350;13.402;2023-08-31T08:02:29;100491.94;;;19.38;60.29
31299;BME280;17927;52.350;13.402;2023-08-31T08:04:54;100490.41;;;19.36;60.21
31299;BME280;17927;52.350;13.402;2023-08-31T08:07:20;100497.81;;;19.35;60.13
31299;BME280;17927;52.350;13.402;2023-08-31T08:09:45;100495.06;;;19.35;60.10
31299;BME280;17927;52.350;13.402;2023-08-31T08:12:10;100497.19;;;19.40;60.32
31299;BME280;17927;52.350;13.402;2023-08-31T08:14:35;100499.72;;;19.48;60.64
31299;BME280;17927;52.350;13.402;2023-08-31T08:17:01;100496.56;;;19.58;60.41
31299;BME280;17927;52.350;13.402;2023-08-31T08:19:26;100504.19;;;19.69;60.54
31299;BME280;17927;52.350;13.402;2023-08-31T08:21:51;100496.59;;;19.85;60.72
31299;BME280;17927;52.350;13.402;2023-08-31T08:24:17;100499.78;;;20.02;60.65
31299;BME280;17927;52.350;13.402;2023-08-31T08:26:42;100506.09;;;20.16;60.64
31299;BME280;17927;52.350;13.402;2023-08-31T08:29:07;100500.78;;;20.28;59.97
31299;BME280;17927;52.350;13.402;2023-08-31T08:31:32;100507.31;;;20.40;60.17
31299;BME280;17927;52.350;13.402;2023-08-31T08:33:58;100503.50;;;20.54;60.40
31299;BME280;17927;52.350;13.402;2023-08-31T08:36:23;100510.41;;;20.71;59.92
31299;BME280;17927;52.350;13.402;2023-08-31T08:38:48;100504.06;;;20.83;59.22
31299;BME280;17927;52.350;13.402;2023-08-31T08:41:14;100500.88;;;20.93;58.69
31299;BME280;17927;52.350;13.402;2023-08-31T08:43:42;100501.22;;;21.04;57.53
31299;BME280;17927;52.350;13.402;2023-08-31T08:46:09;100505.38;;;21.13;57.65
31299;BME280;17927;52.350;13.402;2023-08-31T08:48:36;100494.38;;;21.20;57.22
31299;BME280;17927;52.350;13.402;2023-08-31T08:51:03;100505.31;;;21.26;56.95
31299;BME280;17927;52.350;13.402;2023-08-31T08:53:29;100499.34;;;21.36;56.86
31299;BME280;17927;52.350;13.402;2023-08-31T08:55:54;100486.41;;;21.43;55.86
31299;BME280;17927;52.350;13.402;2023-08-31T08:58:20;100494.19;;;21.53;56.33
31299;BME280;17927;52.350;13.402;2023-08-31T09:00:46;100488.22;;;21.63;55.61
31299;BME280;17927;52.350;13.402;2023-08-31T09:03:12;100483.06;;;21.73;55.24
31299;BME280;17927;52.350;13.402;2023-08-31T09:05:38;100481.69;;;21.83;54.55
31299;BME280;17927;52.350;13.402;2023-08-31T09:08:08;100485.25;;;21.90;53.99
31299;BME280;17927;52.350;13.402;2023-08-31T09:10:40;100497.88;;;21.98;53.41
31299;BME280;17927;52.350;13.402;2023-08-31T09:13:13;100497.63;;;21.99;53.16
31299;BME280;17927;52.350;13.402;2023-08-31T09:15:48;100500.19;;;22.01;53.27
31299;BME280;17927;52.350;13.402;2023-08-31T09:18:23;100496.19;;;21.97;52.36
31299;BME280;17927;52.350;13.402;2023-08-31T09:20:49;100485.88;;;21.92;52.52
31299;BME280;17927;52.350;13.402;2023-08-31T09:23:15;100501.94;;;21.88;51.98
31299;BME280;17927;52.350;13.402;2023-08-31T09:25:51;100497.56;;;21.81;51.40
31299;BME280;17927;52.350;13.402;2023-08-31T09:28:20;100495.34;;;21.71;51.29
31299;BME280;17927;52.350;13.402;2023-08-31T09:30:47;100492.44;;;21.59;51.35
31299;BME280;17927;52.350;13.402;2023-08-31T09:33:15;100500.72;;;21.52;51.93
31299;BME280;17927;52.350;13.402;2023-08-31T09:35:50;100496.50;;;21.50;51.92
31299;BME280;17927;52.350;13.402;2023-08-31T09:38:16;100494.38;;;21.52;52.22
31299;BME280;17927;52.350;13.402;2023-08-31T09:40:41;100490.75;;;21.58;52.14
31299;BME280;17927;52.350;13.402;2023-08-31T09:43:07;100497.69;;;21.67;51.73
31299;BME280;17927;52.350;13.402;2023-08-31T09:45:33;100487.25;;;21.76;50.30
31299;BME280;17927;52.350;13.402;2023-08-31T09:48:00;100478.75;;;21.84;49.20
31299;BME280;17927;52.350;13.402;2023-08-31T09:50:28;100490.06;;;21.95;49.18
31299;BME280;17927;52.350;13.402;2023-08-31T09:52:55;100484.44;;;22.08;49.20
31299;BME280;17927;52.350;13.402;2023-08-31T09:55:25;100480.13;;;22.19;48.87
31299;BME280;17927;52.350;13.402;2023-08-31T09:57:56;100477.53;;;22.24;48.30
31299;BME280;17927;52.350;13.402;2023-08-31T10:00:22;100486.53;;;22.31;48.72
31299;BME280;17927;52.350;13.402;2023-08-31T10:02:47;100485.81;;;22.43;48.34
31299;BME280;17927;52.350;13.402;2023-08-31T10:05:14;100485.44;;;22.58;49.09
31299;BME280;17927;52.350;13.402;2023-08-31T10:07:40;100494.41;;;22.72;48.59
31299;BME280;17927;52.350;13.402;2023-08-31T10:10:07;100488.56;;;22.80;47.21
31299;BME280;17927;52.350;13.402;2023-08-31T10:12:35;100494.22;;;22.85;45.82
31299;BME280;17927;52.350;13.402;2023-08-31T10:15:01;100488.28;;;22.88;46.39
31299;BME280;17927;52.350;13.402;2023-08-31T10:17:26;100496.75;;;22.87;45.91
31299;BME280;17927;52.350;13.402;2023-08-31T10:19:52;100490.63;;;22.85;45.17
31299;BME280;17927;52.350;13.402;2023-08-31T10:22:18;100496.81;;;22.80;45.53
31299;BME280;17927;52.350;13.402;2023-08-31T10:25:05;100492.84;;;22.76;44.99
31299;BME280;17927;52.350;13.402;2023-08-31T10:27:41;100500.72;;;22.72;44.84
31299;BME280;17927;52.350;13.402;2023-08-31T10:30:24;100506.59;;;22.76;45.45
31299;BME280;17927;52.350;13.402;2023-08-31T10:35:51;100505.38;;;22.90;45.96
31299;BME280;17927;52.350;13.402;2023-08-31T10:38:23;100502.53;;;22.97;45.95
31299;BME280;17927;52.350;13.402;2023-08-31T10:43:25;100504.69;;;22.95;45.96
31299;BME280;17927;52.350;13.402;2023-08-31T10:45:51;100515.56;;;22.90;46.04
31299;BME280;17927;52.350;13.402;2023-08-31T10:48:17;100526.88;;;22.81;45.62
31299;BME280;17927;52.350;13.402;2023-08-31T10:50:43;100523.00;;;22.71;46.90
31299;BME280;17927;52.350;13.402;2023-08-31T10:53:09;100519.91;;;22.60;47.55
31299;BME280;17927;52.350;13.402;2023-08-31T10:55:52;100504.78;;;22.51;47.98
31299;BME280;17927;52.350;13.402;2023-08-31T10:58:18;100507.81;;;22.43;48.70
31299;BME280;17927;52.350;13.402;2023-08-31T11:00:52;100501.88;;;22.46;49.92
31299;BME280;17927;52.350;13.402;2023-08-31T11:03:18;100499.91;;;22.53;50.42
31299;BME280;17927;52.350;13.402;2023-08-31T11:05:53;100510.50;;;22.68;50.22
31299;BME280;17927;52.350;13.402;2023-08-31T11:08:22;100508.53;;;22.75;50.32
31299;BME280;17927;52.350;13.402;2023-08-31T11:10:48;100505.69;;;22.82;49.54
31299;BME280;17927;52.350;13.402;2023-08-31T11:13:19;100497.09;;;22.90;49.60
31299;BME280;17927;52.350;13.402;2023-08-31T11:15:47;100495.94;;;22.98;49.75
31299;BME280;17927;52.350;13.402;2023-08-31T11:18:13;100502.59;;;23.09;49.36
31299;BME280;17927;52.350;13.402;2023-08-31T11:20:42;100510.41;;;23.12;48.67
31299;BME280;17927;52.350;13.402;2023-08-31T11:23:07;100510.03;;;23.08;48.35
31299;BME280;17927;52.350;13.402;2023-08-31T11:25:32;100512.63;;;23.03;48.43
31299;BME280;17927;52.350;13.402;2023-08-31T11:28:05;100494.34;;;22.90;47.99
31299;BME280;17927;52.350;13.402;2023-08-31T11:30:31;100504.09;;;22.74;47.81
31299;BME280;17927;52.350;13.402;2023-08-31T11:33:02;100501.72;;;22.59;47.92
31299;BME280;17927;52.350;13.402;2023-08-31T11:35:32;100502.31;;;22.43;48.42
31299;BME280;17927;52.350;13.402;2023-08-31T11:37:58;100502.22;;;22.31;48.64
31299;BME280;17927;52.350;13.402;2023-08-31T11:40:26;100488.28;;;22.26;49.47
31299;BME280;17927;52.350;13.402;2023-08-31T11:42:52;100489.38;;;22.25;50.68
31299;BME280;17927;52.350;13.402;2023-08-31T11:45:17;100483.16;;;22.29;51.17
31299;BME280;17927;52.350;13.402;2023-08-31T11:47:43;100482.66;;;22.39;51.03
31299;BME280;17927;52.350;13.402;2023-08-31T11:50:10;100487.41;;;22.50;50.86
31299;BME280;17927;52.350;13.402;2023-08-31T11:52:37;100488.13;;;22.64;50.28
31299;BME280;17927;52.350;13.402;2023-08-31T11:55:02;100496.91;;;22.73;49.97
31299;BME280;17927;52.350;13.402;2023-08-31T11:57:28;100488.94;;;22.84;49.89
31299;BME280;17927;52.350;13.402;2023-08-31T11:59:54;100489.00;;;22.95;50.12
31299;BME280;17927;52.350;13.402;2023-08-31T12:02:20;100493.97;;;23.05;50.24
31299;BME280;17927;52.350;13.402;2023-08-31T12:04:46;100480.94;;;23.12;49.71
31299;BME280;17927;52.350;13.402;2023-08-31T12:07:16;100486.59;;;23.18;49.47
31299;BME280;17927;52.350;13.402;2023-08-31T12:09:41;100484.44;;;23.20;49.32
31299;BME280;17927;52.350;13.402;2023-08-31T12:12:09;100488.28;;;23.19;49.10
31299;BME280;17927;52.350;13.402;2023-08-31T12:14:37;100475.56;;;23.18;48.34
31299;BME280;17927;52.350;13.402;2023-08-31T12:17:05;100487.03;;;23.15;48.44
31299;BME280;17927;52.350;13.402;2023-08-31T12:19:31;100490.50;;;23.10;48.31
31299;BME280;17927;52.350;13.402;2023-08-31T12:21:57;100491.44;;;23.04;48.63
31299;BME280;17927;52.350;13.402;2023-08-31T12:24:23;100486.00;;;22.97;48.56
31299;BME280;17927;52.350;13.402;2023-08-31T12:26:49;100485.63;;;22.93;48.69
31299;BME280;17927;52.350;13.402;2023-08-31T12:29:14;100485.03;;;22.91;48.36
31299;BME280;17927;52.350;13.402;2023-08-31T12:31:39;100483.59;;;22.89;47.93
31299;BME280;17927;52.350;13.402;2023-08-31T12:34:04;100499.50;;;22.87;47.57
31299;BME280;17927;52.350;13.402;2023-08-31T12:36:31;100501.03;;;22.83;47.30
31299;BME280;17927;52.350;13.402;2023-08-31T12:38:57;100509.16;;;22.77;46.47
31299;BME280;17927;52.350;13.402;2023-08-31T12:41:26;100513.66;;;22.72;46.30
31299;BME280;17927;52.350;13.402;2023-08-31T12:43:51;100518.16;;;22.66;46.56
31299;BME280;17927;52.350;13.402;2023-08-31T12:46:16;100522.47;;;22.62;46.56